20U

Beach Airport

Beach, North Dakota, USA
METAR K20U 120035Z AUTO 22006KT 10SM CLR M05/M07 A2983 RMK AO2
Observed Flight Rules
Dec-12 @ 00:35 UTC (6 minutes ago) Visual Flight Rules
Wind Visibility Clouds
220° at 6 knots 10 miles
  • Clear skies
Temperatures Readings
Current -5°C / 23°F
Dewpoint -7°C / 19°F
Humidity 86%
Altimeter 29.83" Hg
Pressure 1010 hPa
Elevation 840
METAR K20U 120035Z AUTO 22006KT 10SM CLR M05/M07 A2983 RMK AO2
Observed Flight Rules
Dec-12 @ 00:35 UTC
(6 minutes ago)
VFR
Wind Visibility
220° at 6 knots 10 miles
Clouds
  • Clear skies
Temperature Dewpoint
-5°C / 23°F -7°C / 19°F
Humidity Altimeter Pressure
86% 29.83" Hg 1010 hPa